sensor_id;sensor_type;location;lat;lon;timestamp;pressure;altitude;pressure_sealevel;temperature;humidity
77106;BME280;66057;54.718;18.426;2023-06-04T00:01:13;102119.25;;;6.91;93.07
77106;BME280;66057;54.718;18.426;2023-06-04T00:03:58;102119.84;;;6.98;92.90
77106;BME280;66057;54.718;18.426;2023-06-04T00:06:24;102117.50;;;7.01;93.03
77106;BME280;66057;54.718;18.426;2023-06-04T00:08:50;102114.88;;;7.00;92.47
77106;BME280;66057;54.718;18.426;2023-06-04T00:11:19;102124.53;;;7.04;92.09
77106;BME280;66057;54.718;18.426;2023-06-04T00:13:45;102116.19;;;7.07;91.94
77106;BME280;66057;54.718;18.426;2023-06-04T00:16:12;102121.09;;;7.04;92.40
77106;BME280;66057;54.718;18.426;2023-06-04T00:18:37;102110.88;;;7.04;92.30
77106;BME280;66057;54.718;18.426;2023-06-04T00:21:03;102111.34;;;7.10;92.16
77106;BME280;66057;54.718;18.426;2023-06-04T00:23:29;102110.44;;;7.09;91.49
77106;BME280;66057;54.718;18.426;2023-06-04T00:25:55;102115.78;;;7.12;91.88
77106;BME280;66057;54.718;18.426;2023-06-04T00:28:24;102106.22;;;7.10;91.76
77106;BME280;66057;54.718;18.426;2023-06-04T00:30:51;102115.38;;;7.18;92.12
77106;BME280;66057;54.718;18.426;2023-06-04T00:33:17;102105.28;;;7.31;91.00
77106;BME280;66057;54.718;18.426;2023-06-04T00:35:43;102102.59;;;7.29;91.58
77106;BME280;66057;54.718;18.426;2023-06-04T00:38:09;102109.81;;;7.23;91.15
77106;BME280;66057;54.718;18.426;2023-06-04T00:40:36;102109.78;;;7.12;92.33
77106;BME280;66057;54.718;18.426;2023-06-04T00:43:02;102106.53;;;7.03;92.43
77106;BME280;66057;54.718;18.426;2023-06-04T00:45:32;102101.00;;;6.86;92.96
77106;BME280;66057;54.718;18.426;2023-06-04T00:47:58;102102.91;;;6.89;92.28
77106;BME280;66057;54.718;18.426;2023-06-04T00:50:27;102098.34;;;6.85;92.84
77106;BME280;66057;54.718;18.426;2023-06-04T00:52:54;102101.31;;;6.79;92.99
77106;BME280;66057;54.718;18.426;2023-06-04T00:55:25;102098.59;;;6.66;93.03
77106;BME280;66057;54.718;18.426;2023-06-04T00:57:57;102097.97;;;6.58;93.25
77106;BME280;66057;54.718;18.426;2023-06-04T01:00:23;102100.13;;;6.64;93.62
77106;BME280;66057;54.718;18.426;2023-06-04T01:02:51;102093.03;;;6.72;93.29
77106;BME280;66057;54.718;18.426;2023-06-04T01:05:33;102096.03;;;6.66;93.36
77106;BME280;66057;54.718;18.426;2023-06-04T01:08:04;102091.56;;;6.64;93.23
77106;BME280;66057;54.718;18.426;2023-06-04T01:10:38;102091.69;;;6.65;93.61
77106;BME280;66057;54.718;18.426;2023-06-04T01:13:06;102092.94;;;6.70;93.17
77106;BME280;66057;54.718;18.426;2023-06-04T01:15:36;102083.50;;;6.69;93.30
77106;BME280;66057;54.718;18.426;2023-06-04T01:18:15;102083.84;;;6.74;93.80
77106;BME280;66057;54.718;18.426;2023-06-04T01:21:02;102084.78;;;6.64;93.48
77106;BME280;66057;54.718;18.426;2023-06-04T01:23:49;102079.47;;;6.61;93.11
77106;BME280;66057;54.718;18.426;2023-06-04T01:26:31;102086.09;;;6.59;92.85
77106;BME280;66057;54.718;18.426;2023-06-04T01:29:01;102082.28;;;6.54;93.47
77106;BME280;66057;54.718;18.426;2023-06-04T01:31:27;102084.63;;;6.51;92.90
77106;BME280;66057;54.718;18.426;2023-06-04T01:33:54;102082.28;;;6.54;92.72
77106;BME280;66057;54.718;18.426;2023-06-04T01:36:24;102078.75;;;6.52;92.99
77106;BME280;66057;54.718;18.426;2023-06-04T01:38:51;102075.88;;;6.59;92.70
77106;BME280;66057;54.718;18.426;2023-06-04T01:41:17;102077.63;;;6.70;92.65
77106;BME280;66057;54.718;18.426;2023-06-04T01:43:43;102078.69;;;6.95;92.75
77106;BME280;66057;54.718;18.426;2023-06-04T01:46:14;102076.59;;;7.01;92.91
77106;BME280;66057;54.718;18.426;2023-06-04T01:48:45;102075.28;;;6.95;92.93
77106;BME280;66057;54.718;18.426;2023-06-04T01:51:17;102072.59;;;6.93;93.13
77106;BME280;66057;54.718;18.426;2023-06-04T01:53:43;102072.59;;;6.93;93.09
77106;BME280;66057;54.718;18.426;2023-06-04T01:56:09;102071.69;;;6.93;93.06
77106;BME280;66057;54.718;18.426;2023-06-04T01:58:36;102066.63;;;7.05;92.75
77106;BME280;66057;54.718;18.426;2023-06-04T02:01:02;102064.66;;;7.12;91.66
77106;BME280;66057;54.718;18.426;2023-06-04T02:03:30;102071.97;;;7.08;91.54
77106;BME280;66057;54.718;18.426;2023-06-04T02:06:04;102079.72;;;6.97;91.69
77106;BME280;66057;54.718;18.426;2023-06-04T02:08:33;102072.59;;;6.93;90.56
77106;BME280;66057;54.718;18.426;2023-06-04T02:11:00;102066.25;;;6.88;90.33
77106;BME280;66057;54.718;18.426;2023-06-04T02:13:26;102079.56;;;6.84;90.09
77106;BME280;66057;54.718;18.426;2023-06-04T02:15:52;102069.75;;;6.79;90.24
77106;BME280;66057;54.718;18.426;2023-06-04T02:18:19;102083.59;;;6.92;89.23
77106;BME280;66057;54.718;18.426;2023-06-04T02:20:48;102074.38;;;6.94;88.62
77106;BME280;66057;54.718;18.426;2023-06-04T02:23:18;102080.25;;;6.93;87.98
77106;BME280;66057;54.718;18.426;2023-06-04T02:25:48;102072.16;;;6.99;86.89
77106;BME280;66057;54.718;18.426;2023-06-04T02:28:14;102071.13;;;7.19;85.51
77106;BME280;66057;54.718;18.426;2023-06-04T02:30:47;102079.78;;;7.09;86.15
77106;BME280;66057;54.718;18.426;2023-06-04T02:33:16;102083.72;;;7.06;85.98
77106;BME280;66057;54.718;18.426;2023-06-04T02:35:49;102072.63;;;7.05;85.85
77106;BME280;66057;54.718;18.426;2023-06-04T02:38:18;102083.97;;;7.09;85.64
77106;BME280;66057;54.718;18.426;2023-06-04T02:40:44;102082.63;;;7.02;85.54
77106;BME280;66057;54.718;18.426;2023-06-04T02:43:10;102085.94;;;7.01;85.86
77106;BME280;66057;54.718;18.426;2023-06-04T02:45:36;102087.53;;;7.11;84.34
77106;BME280;66057;54.718;18.426;2023-06-04T02:48:02;102082.47;;;7.34;83.29
77106;BME280;66057;54.718;18.426;2023-06-04T02:50:32;102088.44;;;7.56;81.40
77106;BME280;66057;54.718;18.426;2023-06-04T02:52:58;102078.97;;;7.55;83.37
77106;BME280;66057;54.718;18.426;2023-06-04T02:55:25;102072.50;;;7.60;83.38
77106;BME280;66057;54.718;18.426;2023-06-04T02:57:54;102076.09;;;7.62;82.75
77106;BME280;66057;54.718;18.426;2023-06-04T03:00:20;102075.50;;;7.55;82.29
77106;BME280;66057;54.718;18.426;2023-06-04T03:02:47;102071.63;;;7.60;82.29
77106;BME280;66057;54.718;18.426;2023-06-04T03:05:14;102072.84;;;7.65;82.24
77106;BME280;66057;54.718;18.426;2023-06-04T03:07:43;102070.75;;;7.71;82.02
77106;BME280;66057;54.718;18.426;2023-06-04T03:10:13;102075.09;;;7.72;81.67
77106;BME280;66057;54.718;18.426;2023-06-04T03:12:40;102067.97;;;7.79;82.31
77106;BME280;66057;54.718;18.426;2023-06-04T03:15:06;102074.19;;;7.83;81.90
77106;BME280;66057;54.718;18.426;2023-06-04T03:17:32;102070.53;;;7.79;83.22
77106;BME280;66057;54.718;18.426;2023-06-04T03:19:58;102076.06;;;7.74;83.69
77106;BME280;66057;54.718;18.426;2023-06-04T03:22:25;102073.88;;;7.67;84.31
77106;BME280;66057;54.718;18.426;2023-06-04T03:24:51;102077.06;;;7.64;84.46
77106;BME280;66057;54.718;18.426;2023-06-04T03:27:20;102079.63;;;7.64;84.76
77106;BME280;66057;54.718;18.426;2023-06-04T03:29:56;102074.53;;;7.64;85.86
77106;BME280;66057;54.718;18.426;2023-06-04T03:32:22;102084.53;;;7.61;86.79
77106;BME280;66057;54.718;18.426;2023-06-04T03:34:58;102076.31;;;7.65;87.13
77106;BME280;66057;54.718;18.426;2023-06-04T03:37:24;102076.75;;;7.71;87.11
77106;BME280;66057;54.718;18.426;2023-06-04T03:39:55;102081.19;;;7.74;86.63
77106;BME280;66057;54.718;18.426;2023-06-04T03:42:21;102074.97;;;7.82;86.73
77106;BME280;66057;54.718;18.426;2023-06-04T03:44:57;102080.41;;;7.86;86.55
77106;BME280;66057;54.718;18.426;2023-06-04T03:47:41;102076.09;;;7.85;87.29
77106;BME280;66057;54.718;18.426;2023-06-04T03:50:10;102069.53;;;7.89;87.61
77106;BME280;66057;54.718;18.426;2023-06-04T03:52:41;102061.59;;;7.98;86.60
77106;BME280;66057;54.718;18.426;2023-06-04T03:55:08;102063.28;;;8.09;86.39
77106;BME280;66057;54.718;18.426;2023-06-04T03:57:34;102065.03;;;8.21;86.13
77106;BME280;66057;54.718;18.426;2023-06-04T04:00:01;102070.94;;;8.32;85.76
77106;BME280;66057;54.718;18.426;2023-06-04T04:02:27;102070.25;;;8.46;85.25
77106;BME280;66057;54.718;18.426;2023-06-04T04:04:53;102067.09;;;8.50;84.44
77106;BME280;66057;54.718;18.426;2023-06-04T04:07:19;102064.84;;;8.55;85.27
77106;BME280;66057;54.718;18.426;2023-06-04T04:09:52;102062.03;;;8.63;85.47
77106;BME280;66057;54.718;18.426;2023-06-04T04:12:18;102067.03;;;8.73;84.29
77106;BME280;66057;54.718;18.426;2023-06-04T04:14:44;102067.88;;;8.86;83.96
77106;BME280;66057;54.718;18.426;2023-06-04T04:17:10;102065.75;;;8.92;83.68
77106;BME280;66057;54.718;18.426;2023-06-04T04:19:37;102066.38;;;9.01;83.78
77106;BME280;66057;54.718;18.426;2023-06-04T04:22:07;102062.25;;;9.16;82.57
77106;BME280;66057;54.718;18.426;2023-06-04T04:24:35;102056.56;;;9.33;81.64
77106;BME280;66057;54.718;18.426;2023-06-04T04:27:04;102064.09;;;9.43;80.88
77106;BME280;66057;54.718;18.426;2023-06-04T04:29:31;102056.09;;;9.52;80.72
77106;BME280;66057;54.718;18.426;2023-06-04T04:32:05;102059.09;;;9.71;79.91
77106;BME280;66057;54.718;18.426;2023-06-04T04:34:38;102059.00;;;9.83;78.71
77106;BME280;66057;54.718;18.426;2023-06-04T04:37:09;102058.00;;;9.94;78.83
77106;BME280;66057;54.718;18.426;2023-06-04T04:39:35;102057.00;;;10.05;78.81
77106;BME280;66057;54.718;18.426;2023-06-04T04:42:05;102060.38;;;10.17;78.31
77106;BME280;66057;54.718;18.426;2023-06-04T04:44:31;102060.53;;;10.33;78.24
77106;BME280;66057;54.718;18.426;2023-06-04T04:46:59;102059.03;;;10.50;77.11
77106;BME280;66057;54.718;18.426;2023-06-04T04:49:30;102048.16;;;10.54;76.56
77106;BME280;66057;54.718;18.426;2023-06-04T04:52:11;102059.66;;;10.74;76.48
77106;BME280;66057;54.718;18.426;2023-06-04T04:55:17;102054.63;;;10.90;74.26
77106;BME280;66057;54.718;18.426;2023-06-04T04:57:59;102056.31;;;11.04;74.51
77106;BME280;66057;54.718;18.426;2023-06-04T05:00:49;102051.91;;;11.16;73.95
77106;BME280;66057;54.718;18.426;2023-06-04T05:03:36;102055.66;;;11.21;73.47
77106;BME280;66057;54.718;18.426;2023-06-04T05:06:11;102049.63;;;11.35;72.49
77106;BME280;66057;54.718;18.426;2023-06-04T05:09:03;102051.38;;;11.51;72.38
77106;BME280;66057;54.718;18.426;2023-06-04T05:11:46;102052.19;;;11.65;71.83
77106;BME280;66057;54.718;18.426;2023-06-04T05:14:35;102044.78;;;11.71;71.41
77106;BME280;66057;54.718;18.426;2023-06-04T05:17:17;102054.16;;;11.84;70.71
77106;BME280;66057;54.718;18.426;2023-06-04T05:19:58;102046.59;;;11.87;70.66
77106;BME280;66057;54.718;18.426;2023-06-04T05:22:41;102054.91;;;11.97;69.90
77106;BME280;66057;54.718;18.426;2023-06-04T05:25:47;102046.66;;;12.03;68.88
77106;BME280;66057;54.718;18.426;2023-06-04T05:29:34;102053.44;;;12.17;67.97
77106;BME280;66057;54.718;18.426;2023-06-04T05:32:29;102048.16;;;12.30;66.83
77106;BME280;66057;54.718;18.426;2023-06-04T05:35:27;102059.28;;;12.45;66.22
77106;BME280;66057;54.718;18.426;2023-06-04T05:38:27;102048.72;;;12.57;66.20
77106;BME280;66057;54.718;18.426;2023-06-04T05:41:28;102054.69;;;12.72;66.15
77106;BME280;66057;54.718;18.426;2023-06-04T05:44:15;102054.28;;;12.81;64.95
77106;BME280;66057;54.718;18.426;2023-06-04T05:46:59;102051.56;;;12.78;65.78
77106;BME280;66057;54.718;18.426;2023-06-04T05:50:01;102058.25;;;12.90;65.09
77106;BME280;66057;54.718;18.426;2023-06-04T05:52:43;102059.59;;;13.00;64.60
77106;BME280;66057;54.718;18.426;2023-06-04T05:55:36;102055.28;;;12.99;64.39
77106;BME280;66057;54.718;18.426;2023-06-04T05:58:58;102059.72;;;13.18;64.45
77106;BME280;66057;54.718;18.426;2023-06-04T06:02:21;102059.75;;;13.35;63.60
77106;BME280;66057;54.718;18.426;2023-06-04T06:06:09;102066.50;;;13.49;63.54
77106;BME280;66057;54.718;18.426;2023-06-04T06:09:01;102057.63;;;13.62;62.04
77106;BME280;66057;54.718;18.426;2023-06-04T06:11:27;102061.81;;;13.76;61.44
77106;BME280;66057;54.718;18.426;2023-06-04T06:13:58;102064.31;;;13.75;60.52
77106;BME280;66057;54.718;18.426;2023-06-04T06:16:39;102067.13;;;13.79;60.52
77106;BME280;66057;54.718;18.426;2023-06-04T06:19:27;102067.13;;;13.79;60.89
77106;BME280;66057;54.718;18.426;2023-06-04T06:21:52;102061.72;;;13.92;59.86
77106;BME280;66057;54.718;18.426;2023-06-04T06:24:19;102071.03;;;14.07;60.17
77106;BME280;66057;54.718;18.426;2023-06-04T06:26:45;102068.72;;;14.13;59.69
77106;BME280;66057;54.718;18.426;2023-06-04T06:29:11;102070.28;;;14.27;59.59
77106;BME280;66057;54.718;18.426;2023-06-04T06:31:38;102072.84;;;14.27;57.85
77106;BME280;66057;54.718;18.426;2023-06-04T06:34:04;102074.09;;;14.35;57.76
77106;BME280;66057;54.718;18.426;2023-06-04T06:36:29;102072.63;;;14.40;57.96
77106;BME280;66057;54.718;18.426;2023-06-04T06:38:55;102070.59;;;14.34;57.38
77106;BME280;66057;54.718;18.426;2023-06-04T06:41:24;102071.34;;;14.50;57.13
77106;BME280;66057;54.718;18.426;2023-06-04T06:43:52;102069.25;;;14.60;57.64
77106;BME280;66057;54.718;18.426;2023-06-04T06:46:20;102070.56;;;14.70;56.00
77106;BME280;66057;54.718;18.426;2023-06-04T06:48:52;102066.56;;;14.76;56.93
77106;BME280;66057;54.718;18.426;2023-06-04T06:51:18;102076.91;;;14.96;55.73
77106;BME280;66057;54.718;18.426;2023-06-04T06:53:45;102067.84;;;15.05;54.83
77106;BME280;66057;54.718;18.426;2023-06-04T06:56:11;102063.19;;;15.17;54.62
77106;BME280;66057;54.718;18.426;2023-06-04T06:58:37;102074.69;;;15.24;54.46
77106;BME280;66057;54.718;18.426;2023-06-04T07:01:09;102063.06;;;15.35;54.49
77106;BME280;66057;54.718;18.426;2023-06-04T07:03:35;102067.69;;;15.42;54.37
77106;BME280;66057;54.718;18.426;2023-06-04T07:06:01;102062.44;;;15.41;52.92
77106;BME280;66057;54.718;18.426;2023-06-04T07:08:31;102067.56;;;15.58;53.27
77106;BME280;66057;54.718;18.426;2023-06-04T07:11:03;102067.38;;;15.54;52.70
77106;BME280;66057;54.718;18.426;2023-06-04T07:13:32;102065.19;;;15.64;51.86
77106;BME280;66057;54.718;18.426;2023-06-04T07:16:01;102069.25;;;15.79;51.67
77106;BME280;66057;54.718;18.426;2023-06-04T07:18:27;102069.84;;;15.94;51.88
77106;BME280;66057;54.718;18.426;2023-06-04T07:20:59;102065.66;;;15.97;51.53
77106;BME280;66057;54.718;18.426;2023-06-04T07:23:28;102066.34;;;16.14;53.03
77106;BME280;66057;54.718;18.426;2023-06-04T07:25:54;102071.34;;;16.32;54.54
77106;BME280;66057;54.718;18.426;2023-06-04T07:28:21;102063.91;;;16.41;55.95
77106;BME280;66057;54.718;18.426;2023-06-04T07:30:47;102061.88;;;16.54;56.49
77106;BME280;66057;54.718;18.426;2023-06-04T07:33:13;102069.06;;;16.62;52.71
77106;BME280;66057;54.718;18.426;2023-06-04T07:35:41;102061.97;;;16.57;54.30
77106;BME280;66057;54.718;18.426;2023-06-04T07:38:07;102067.38;;;16.62;53.80
77106;BME280;66057;54.718;18.426;2023-06-04T07:40:44;102068.53;;;16.70;57.36
77106;BME280;66057;54.718;18.426;2023-06-04T07:43:13;102067.00;;;16.53;58.99
77106;BME280;66057;54.718;18.426;2023-06-04T07:45:39;102068.69;;;16.52;54.62
77106;BME280;66057;54.718;18.426;2023-06-04T07:48:05;102073.66;;;16.46;55.75
77106;BME280;66057;54.718;18.426;2023-06-04T07:50:37;102062.63;;;16.52;54.56
77106;BME280;66057;54.718;18.426;2023-06-04T07:53:06;102063.94;;;16.63;54.81
77106;BME280;66057;54.718;18.426;2023-06-04T07:55:35;102065.16;;;16.73;55.12
77106;BME280;66057;54.718;18.426;2023-06-04T07:58:13;102060.31;;;16.82;55.64
77106;BME280;66057;54.718;18.426;2023-06-04T08:00:49;102063.06;;;16.86;57.99
77106;BME280;66057;54.718;18.426;2023-06-04T08:03:22;102060.53;;;16.88;52.18
77106;BME280;66057;54.718;18.426;2023-06-04T08:05:53;102055.66;;;16.73;54.37
77106;BME280;66057;54.718;18.426;2023-06-04T08:08:20;102063.00;;;16.85;55.68
77106;BME280;66057;54.718;18.426;2023-06-04T08:10:48;102055.66;;;16.97;55.94
77106;BME280;66057;54.718;18.426;2023-06-04T08:13:17;102059.41;;;17.05;53.94
77106;BME280;66057;54.718;18.426;2023-06-04T08:15:43;102061.47;;;16.90;57.53
77106;BME280;66057;54.718;18.426;2023-06-04T08:18:09;102062.97;;;16.83;52.33
77106;BME280;66057;54.718;18.426;2023-06-04T08:20:35;102065.66;;;16.86;55.60
77106;BME280;66057;54.718;18.426;2023-06-04T08:23:01;102066.31;;;16.81;54.37
77106;BME280;66057;54.718;18.426;2023-06-04T08:25:27;102065.56;;;16.83;56.08
77106;BME280;66057;54.718;18.426;2023-06-04T08:27:53;102065.03;;;16.93;55.87
77106;BME280;66057;54.718;18.426;2023-06-04T08:30:19;102060.56;;;16.89;57.56
77106;BME280;66057;54.718;18.426;2023-06-04T08:32:44;102060.31;;;16.82;60.22
77106;BME280;66057;54.718;18.426;2023-06-04T08:35:10;102066.22;;;16.78;65.09
77106;BME280;66057;54.718;18.426;2023-06-04T08:37:46;102065.38;;;16.79;66.35
77106;BME280;66057;54.718;18.426;2023-06-04T08:40:20;102067.03;;;16.77;63.92
77106;BME280;66057;54.718;18.426;2023-06-04T08:42:51;102070.38;;;16.73;65.47
77106;BME280;66057;54.718;18.426;2023-06-04T08:45:23;102078.31;;;16.77;64.22
77106;BME280;66057;54.718;18.426;2023-06-04T08:47:54;102084.38;;;16.55;62.01
77106;BME280;66057;54.718;18.426;2023-06-04T08:50:22;102087.63;;;16.50;59.96
77106;BME280;66057;54.718;18.426;2023-06-04T08:52:52;102080.06;;;16.56;59.00
77106;BME280;66057;54.718;18.426;2023-06-04T08:55:23;102077.75;;;16.62;58.64
77106;BME280;66057;54.718;18.426;2023-06-04T08:57:52;102083.50;;;16.55;56.75
77106;BME280;66057;54.718;18.426;2023-06-04T09:00:21;102080.59;;;16.68;57.07
77106;BME280;66057;54.718;18.426;2023-06-04T09:02:53;102081.47;;;16.69;57.60
77106;BME280;66057;54.718;18.426;2023-06-04T09:05:21;102082.53;;;16.74;58.63
77106;BME280;66057;54.718;18.426;2023-06-04T09:07:52;102080.69;;;16.71;56.35
77106;BME280;66057;54.718;18.426;2023-06-04T09:10:22;102087.91;;;16.80;57.03
77106;BME280;66057;54.718;18.426;2023-06-04T09:12:51;102083.56;;;16.79;59.66
77106;BME280;66057;54.718;18.426;2023-06-04T09:15:17;102083.94;;;16.66;57.21
77106;BME280;66057;54.718;18.426;2023-06-04T09:17:43;102083.13;;;16.67;57.83
77106;BME280;66057;54.718;18.426;2023-06-04T09:20:22;102083.94;;;16.66;58.80
77106;BME280;66057;54.718;18.426;2023-06-04T09:22:49;102084.94;;;16.69;61.08
77106;BME280;66057;54.718;18.426;2023-06-04T09:25:28;102086.66;;;16.69;58.34
77106;BME280;66057;54.718;18.426;2023-06-04T09:27:56;102083.00;;;16.64;60.83
77106;BME280;66057;54.718;18.426;2023-06-04T09:30:23;102079.53;;;16.87;61.86
77106;BME280;66057;54.718;18.426;2023-06-04T09:32:48;102072.63;;;16.87;61.54
77106;BME280;66057;54.718;18.426;2023-06-04T09:35:18;102074.28;;;16.85;58.88
77106;BME280;66057;54.718;18.426;2023-06-04T09:37:55;102076.53;;;17.00;58.90
77106;BME280;66057;54.718;18.426;2023-06-04T09:40:21;102076.13;;;16.88;63.13
77106;BME280;66057;54.718;18.426;2023-06-04T09:42:50;102070.53;;;17.01;64.48
77106;BME280;66057;54.718;18.426;2023-06-04T09:45:32;102075.53;;;17.20;66.78
77106;BME280;66057;54.718;18.426;2023-06-04T09:47:59;102074.09;;;17.28;65.06
77106;BME280;66057;54.718;18.426;2023-06-04T09:50:30;102070.66;;;17.29;65.47
77106;BME280;66057;54.718;18.426;2023-06-04T09:53:19;102077.41;;;17.24;58.14
77106;BME280;66057;54.718;18.426;2023-06-04T09:56:00;102080.41;;;17.11;54.33
77106;BME280;66057;54.718;18.426;2023-06-04T09:58:30;102071.44;;;17.03;54.76
77106;BME280;66057;54.718;18.426;2023-06-04T10:01:00;102080.53;;;16.90;58.09
77106;BME280;66057;54.718;18.426;2023-06-04T10:03:32;102075.56;;;16.73;60.74
77106;BME280;66057;54.718;18.426;2023-06-04T10:05:59;102075.06;;;16.83;63.14
77106;BME280;66057;54.718;18.426;2023-06-04T10:08:26;102076.31;;;16.70;60.53
77106;BME280;66057;54.718;18.426;2023-06-04T10:10:58;102084.66;;;16.39;65.46
77106;BME280;66057;54.718;18.426;2023-06-04T10:13:30;102080.84;;;16.53;68.92
77106;BME280;66057;54.718;18.426;2023-06-04T10:16:00;102081.50;;;16.48;61.70
77106;BME280;66057;54.718;18.426;2023-06-04T10:18:27;102081.09;;;16.37;61.26
77106;BME280;66057;54.718;18.426;2023-06-04T10:21:00;102079.69;;;16.23;61.97
77106;BME280;66057;54.718;18.426;2023-06-04T10:23:27;102085.34;;;16.35;64.80
77106;BME280;66057;54.718;18.426;2023-06-04T10:25:56;102074.59;;;16.26;65.22
77106;BME280;66057;54.718;18.426;2023-06-04T10:28:23;102082.88;;;16.38;66.37
77106;BME280;66057;54.718;18.426;2023-06-04T10:30:52;102076.91;;;16.19;67.76
77106;BME280;66057;54.718;18.426;2023-06-04T10:33:19;102080.50;;;16.22;63.40
77106;BME280;66057;54.718;18.426;2023-06-04T10:35:56;102078.97;;;16.27;66.54
77106;BME280;66057;54.718;18.426;2023-06-04T10:38:25;102081.03;;;16.36;64.53
77106;BME280;66057;54.718;18.426;2023-06-04T10:40:51;102084.84;;;16.45;62.41
77106;BME280;66057;54.718;18.426;2023-06-04T10:43:29;102080.25;;;16.59;62.64
77106;BME280;66057;54.718;18.426;2023-06-04T10:46:19;102076.75;;;16.59;61.47
77106;BME280;66057;54.718;18.426;2023-06-04T10:48:50;102088.88;;;16.60;64.14
77106;BME280;66057;54.718;18.426;2023-06-04T10:51:29;102086.06;;;16.76;63.46
77106;BME280;66057;54.718;18.426;2023-06-04T10:53:59;102089.38;;;16.95;66.06
77106;BME280;66057;54.718;18.426;2023-06-04T10:56:32;102093.13;;;17.04;65.05
77106;BME280;66057;54.718;18.426;2023-06-04T10:59:17;102086.69;;;17.18;63.04
77106;BME280;66057;54.718;18.426;2023-06-04T11:01:43;102086.91;;;17.24;63.46
77106;BME280;66057;54.718;18.426;2023-06-04T11:04:25;102095.16;;;17.12;61.48
77106;BME280;66057;54.718;18.426;2023-06-04T11:09:47;102099.09;;;17.25;62.20
77106;BME280;66057;54.718;18.426;2023-06-04T11:12:13;102098.31;;;17.27;61.17
77106;BME280;66057;54.718;18.426;2023-06-04T11:14:39;102102.78;;;17.31;59.48
77106;BME280;66057;54.718;18.426;2023-06-04T11:17:12;102103.50;;;17.27;60.62
77106;BME280;66057;54.718;18.426;2023-06-04T11:19:39;102105.50;;;17.34;60.98
77106;BME280;66057;54.718;18.426;2023-06-04T11:22:05;102109.06;;;17.62;60.45
77106;BME280;66057;54.718;18.426;2023-06-04T11:24:32;102106.38;;;17.59;59.96
77106;BME280;66057;54.718;18.426;2023-06-04T11:26:58;102104.25;;;17.49;62.44
77106;BME280;66057;54.718;18.426;2023-06-04T11:29:28;102104.31;;;17.50;61.19
77106;BME280;66057;54.718;18.426;2023-06-04T11:31:54;102109.59;;;17.77;60.18
77106;BME280;66057;54.718;18.426;2023-06-04T11:36:50;102111.56;;;17.84;58.70
77106;BME280;66057;54.718;18.426;2023-06-04T11:46:51;102104.47;;;18.34;60.58
77106;BME280;66057;54.718;18.426;2023-06-04T11:49:20;102105.53;;;18.40;59.96
77106;BME280;66057;54.718;18.426;2023-06-04T11:51:50;102101.78;;;18.30;58.20
77106;BME280;66057;54.718;18.426;2023-06-04T11:54:20;102093.69;;;18.78;58.65
77106;BME280;66057;54.718;18.426;2023-06-04T11:56:49;102098.78;;;19.38;56.77
77106;BME280;66057;54.718;18.426;2023-06-04T11:59:18;102106.50;;;19.65;54.71
77106;BME280;66057;54.718;18.426;2023-06-04T12:01:45;102098.66;;;19.99;52.44
77106;BME280;66057;54.718;18.426;2023-06-04T12:04:16;102101.38;;;20.05;53.37
77106;BME280;66057;54.718;18.426;2023-06-04T12:06:52;102095.53;;;20.14;50.98
77106;BME280;66057;54.718;18.426;2023-06-04T12:09:29;102099.53;;;19.99;49.78
77106;BME280;66057;54.718;18.426;2023-06-04T12:12:04;102094.06;;;20.26;51.86
77106;BME280;66057;54.718;18.426;2023-06-04T12:14:34;102098.81;;;20.07;49.45
77106;BME280;66057;54.718;18.426;2023-06-04T12:17:08;102095.28;;;20.03;51.15
77106;BME280;66057;54.718;18.426;2023-06-04T12:19:46;102099.28;;;19.90;53.44
77106;BME280;66057;54.718;18.426;2023-06-04T12:22:16;102095.75;;;20.24;50.44
77106;BME280;66057;54.718;18.426;2023-06-04T12:24:53;102096.06;;;20.36;53.26
77106;BME280;66057;54.718;18.426;2023-06-04T12:27:20;102098.84;;;20.44;52.40
77106;BME280;66057;54.718;18.426;2023-06-04T12:30:01;102104.31;;;20.55;53.11
77106;BME280;66057;54.718;18.426;2023-06-04T12:32:34;102096.06;;;20.77;49.97
77106;BME280;66057;54.718;18.426;2023-06-04T12:35:01;102094.38;;;20.79;52.29
77106;BME280;66057;54.718;18.426;2023-06-04T12:37:30;102092.81;;;20.88;53.60
77106;BME280;66057;54.718;18.426;2023-06-04T12:39:57;102094.72;;;20.97;53.19
77106;BME280;66057;54.718;18.426;2023-06-04T12:42:23;102103.59;;;21.04;51.08
77106;BME280;66057;54.718;18.426;2023-06-04T12:44:49;102096.97;;;21.21;52.79
77106;BME280;66057;54.718;18.426;2023-06-04T12:47:15;102096.19;;;21.26;53.53
77106;BME280;66057;54.718;18.426;2023-06-04T12:49:43;102101.13;;;20.69;55.01
77106;BME280;66057;54.718;18.426;2023-06-04T12:52:12;102100.44;;;21.20;46.78
77106;BME280;66057;54.718;18.426;2023-06-04T12:54:43;102114.38;;;21.67;46.95
77106;BME280;66057;54.718;18.426;2023-06-04T12:57:09;102112.06;;;21.85;41.94
77106;BME280;66057;54.718;18.426;2023-06-04T12:59:35;102109.72;;;21.51;44.52
77106;BME280;66057;54.718;18.426;2023-06-04T13:02:01;102107.34;;;21.64;43.87
77106;BME280;66057;54.718;18.426;2023-06-04T13:04:27;102112.94;;;21.36;44.25
77106;BME280;66057;54.718;18.426;2023-06-04T13:06:53;102111.53;;;21.53;42.64
77106;BME280;66057;54.718;18.426;2023-06-04T13:09:25;102113.28;;;21.54;41.74
77106;BME280;66057;54.718;18.426;2023-06-04T13:11:51;102112.28;;;21.96;42.34
77106;BME280;66057;54.718;18.426;2023-06-04T13:14:17;102114.56;;;21.79;42.18
77106;BME280;66057;54.718;18.426;2023-06-04T13:16:43;102104.53;;;21.54;42.68
77106;BME280;66057;54.718;18.426;2023-06-04T13:19:14;102103.75;;;21.59;39.33